createdAt,value
2023-01-23T00:00:25.599Z,1.67
2023-01-23T00:01:25.679Z,1.70
2023-01-23T00:02:25.816Z,1.74
2023-01-23T00:03:25.841Z,1.75
2023-01-23T00:04:25.973Z,1.79
2023-01-23T00:05:25.989Z,1.81
2023-01-23T00:06:26.085Z,1.83
2023-01-23T00:07:26.177Z,1.82
2023-01-23T00:08:26.266Z,1.82
2023-01-23T00:09:26.333Z,1.82
2023-01-23T00:10:26.425Z,1.81
2023-01-23T00:11:26.573Z,1.77
2023-01-23T00:12:26.996Z,1.75
2023-01-23T00:13:26.653Z,1.74
2023-01-23T00:14:26.720Z,1.72
2023-01-23T00:15:26.788Z,1.71
2023-01-23T00:16:26.886Z,1.71
2023-01-23T00:17:26.946Z,1.72
2023-01-23T00:18:27.076Z,1.71
2023-01-23T00:19:27.114Z,1.70
2023-01-23T00:20:27.209Z,1.71
2023-01-23T00:21:27.306Z,1.70
2023-01-23T00:22:27.385Z,1.70
2023-01-23T00:23:27.485Z,1.71
2023-01-23T00:24:27.561Z,1.71
2023-01-23T00:25:27.637Z,1.68
2023-01-23T00:26:27.713Z,1.68
2023-01-23T00:27:27.788Z,1.68
2023-01-23T00:28:27.897Z,1.67
2023-01-23T00:29:27.943Z,1.67
2023-01-23T00:30:28.017Z,1.63
2023-01-23T00:31:28.250Z,1.65
2023-01-23T00:32:28.185Z,1.64
2023-01-23T00:33:28.259Z,1.64
2023-01-23T00:34:28.315Z,1.65
2023-01-23T00:35:28.403Z,1.67
2023-01-23T00:36:28.487Z,1.70
2023-01-23T00:37:28.560Z,1.65
2023-01-23T00:38:28.656Z,1.68
2023-01-23T00:39:28.730Z,1.68
2023-01-23T00:40:28.802Z,1.71
2023-01-23T00:41:28.875Z,1.71
2023-01-23T00:42:28.960Z,1.72
2023-01-23T00:43:29.073Z,1.72
2023-01-23T00:44:29.138Z,1.71
2023-01-23T00:45:29.207Z,1.70
2023-01-23T00:46:29.361Z,1.68
2023-01-23T00:47:29.398Z,1.68
2023-01-23T00:48:29.499Z,1.65
2023-01-23T00:49:29.555Z,1.64
2023-01-23T00:50:29.640Z,1.64
2023-01-23T00:51:29.742Z,1.64
2023-01-23T00:52:29.783Z,1.67
2023-01-23T00:53:29.874Z,1.67
2023-01-23T00:54:29.919Z,1.68
2023-01-23T00:55:30.007Z,1.70
2023-01-23T00:56:30.091Z,1.71
2023-01-23T00:57:30.160Z,1.71
2023-01-23T00:58:30.540Z,1.72
2023-01-23T00:59:30.339Z,1.72
2023-01-23T01:00:30.422Z,1.68
2023-01-23T01:01:30.522Z,1.70
2023-01-23T01:02:30.624Z,1.70
2023-01-23T01:03:30.696Z,1.72
2023-01-23T01:04:30.741Z,1.72
2023-01-23T01:05:30.847Z,1.67
2023-01-23T01:06:30.921Z,1.67
2023-01-23T01:07:31.000Z,1.71
2023-01-23T01:08:31.091Z,1.72
2023-01-23T01:09:31.165Z,1.75
2023-01-23T01:10:31.245Z,1.75
2023-01-23T01:11:31.314Z,1.75
2023-01-23T01:12:31.401Z,1.74
2023-01-23T01:13:31.493Z,1.72
2023-01-23T01:14:31.541Z,1.75
2023-01-23T01:15:31.627Z,1.74
2023-01-23T01:16:31.759Z,1.75
2023-01-23T01:17:31.785Z,1.72
2023-01-23T01:18:31.889Z,1.70
2023-01-23T01:19:31.962Z,1.68
2023-01-23T01:20:32.038Z,1.67
2023-01-23T01:21:32.113Z,1.68
2023-01-23T01:22:32.189Z,1.68
2023-01-23T01:23:32.272Z,1.68
2023-01-23T01:24:32.308Z,1.72
2023-01-23T01:25:32.417Z,1.70
2023-01-23T01:26:32.516Z,1.71
2023-01-23T01:27:32.603Z,1.68
2023-01-23T01:28:32.707Z,1.71
2023-01-23T01:29:32.779Z,1.70
2023-01-23T01:30:32.860Z,1.70
2023-01-23T01:31:33.042Z,1.67
2023-01-23T01:32:33.013Z,1.65
2023-01-23T01:33:33.104Z,1.68
2023-01-23T01:34:33.154Z,1.67
2023-01-23T01:35:33.218Z,1.70
2023-01-23T01:36:33.307Z,1.71
2023-01-23T01:37:33.375Z,1.77
2023-01-23T01:38:33.468Z,1.81
2023-01-23T01:39:33.546Z,1.81
2023-01-23T01:40:33.639Z,1.81
2023-01-23T01:41:33.704Z,1.79
2023-01-23T01:42:33.765Z,1.79
2023-01-23T01:43:33.873Z,1.77
2023-01-23T01:44:33.915Z,1.75
2023-01-23T01:45:33.991Z,1.77
2023-01-23T01:46:34.205Z,1.79
2023-01-23T01:47:34.157Z,1.83
2023-01-23T01:48:34.272Z,1.85
2023-01-23T01:49:34.330Z,1.88
2023-01-23T01:50:34.411Z,1.89
2023-01-23T01:51:34.506Z,1.89
2023-01-23T01:52:34.534Z,1.93
2023-01-23T01:53:34.629Z,1.92
2023-01-23T01:54:34.667Z,1.93
2023-01-23T01:55:34.756Z,1.92
2023-01-23T01:56:34.822Z,1.90
2023-01-23T01:57:34.936Z,1.89
2023-01-23T01:58:35.026Z,1.88
2023-01-23T01:59:35.098Z,1.90
2023-01-23T02:00:35.223Z,1.89
2023-01-23T02:01:35.282Z,1.88
2023-01-23T02:02:35.359Z,1.86
2023-01-23T02:03:39.344Z,1.81
2023-01-23T02:04:35.532Z,1.82
2023-01-23T02:05:35.609Z,1.79
2023-01-23T02:06:35.681Z,1.79
2023-01-23T02:07:35.768Z,1.77
2023-01-23T02:08:35.845Z,1.75
2023-01-23T02:09:35.986Z,1.75
2023-01-23T02:10:36.030Z,1.74
2023-01-23T02:11:36.101Z,1.72
2023-01-23T02:12:36.183Z,1.71
2023-01-23T02:13:36.272Z,1.74
2023-01-23T02:14:36.372Z,1.77
2023-01-23T02:15:36.412Z,1.75
2023-01-23T02:16:36.561Z,1.71
2023-01-23T02:17:36.563Z,1.72
2023-01-23T02:18:36.633Z,1.72
2023-01-23T02:19:36.802Z,1.72
2023-01-23T02:20:36.759Z,1.79
2023-01-23T02:21:36.831Z,1.75
2023-01-23T02:22:36.915Z,1.77
2023-01-23T02:23:37.007Z,1.74
2023-01-23T02:24:37.313Z,1.75
2023-01-23T02:25:37.177Z,1.77
2023-01-23T02:26:37.263Z,1.75
2023-01-23T02:27:37.353Z,1.71
2023-01-23T02:28:37.422Z,1.71
2023-01-23T02:29:37.552Z,1.71
2023-01-23T02:30:37.603Z,1.70
2023-01-23T02:31:37.762Z,1.71
2023-01-23T02:32:37.756Z,1.70
2023-01-23T02:33:37.854Z,1.70
2023-01-23T02:34:37.951Z,1.70
2023-01-23T02:35:38.018Z,1.71
2023-01-23T02:36:38.096Z,1.72
2023-01-23T02:37:38.170Z,1.71
2023-01-23T02:38:38.259Z,1.74
2023-01-23T02:39:38.367Z,1.72
2023-01-23T02:40:38.418Z,1.70
2023-01-23T02:41:38.521Z,1.70
2023-01-23T02:42:38.583Z,1.68
2023-01-23T02:43:38.677Z,1.68
2023-01-23T02:44:38.775Z,1.74
2023-01-23T02:45:38.931Z,1.68
2023-01-23T02:46:38.923Z,1.70
2023-01-23T02:47:38.993Z,1.67
2023-01-23T02:48:39.083Z,1.71
2023-01-23T02:49:39.188Z,1.71
2023-01-23T02:50:39.243Z,1.74
2023-01-23T02:51:39.332Z,1.74
2023-01-23T02:52:39.412Z,1.79
2023-01-23T02:53:39.511Z,1.81
2023-01-23T02:54:39.595Z,1.81
2023-01-23T02:55:39.675Z,1.82
2023-01-23T02:56:39.752Z,1.77
2023-01-23T02:57:39.845Z,1.83
2023-01-23T02:58:39.932Z,1.85
2023-01-23T02:59:40.026Z,1.83
2023-01-23T03:00:40.105Z,1.86
2023-01-23T03:01:40.179Z,1.83
2023-01-23T03:02:40.255Z,1.83
2023-01-23T03:03:40.342Z,1.83
2023-01-23T03:04:40.448Z,1.88
2023-01-23T03:05:40.529Z,1.88
2023-01-23T03:06:40.602Z,1.92
2023-01-23T03:07:40.695Z,1.93
2023-01-23T03:08:40.763Z,1.95
2023-01-23T03:09:40.850Z,2.00
2023-01-23T03:10:40.913Z,1.98
2023-01-23T03:11:41.015Z,2.01
2023-01-23T03:12:41.097Z,1.98
2023-01-23T03:13:41.166Z,2.01
2023-01-23T03:14:41.259Z,2.02
2023-01-23T03:15:41.343Z,2.05
2023-01-23T03:16:41.500Z,2.07
2023-01-23T03:17:41.513Z,2.09
2023-01-23T03:18:53.412Z,2.11
2023-01-23T03:19:41.717Z,2.11
2023-01-23T03:20:41.781Z,2.11
2023-01-23T03:21:41.844Z,2.12
2023-01-23T03:22:41.919Z,2.14
2023-01-23T03:23:41.992Z,2.12
2023-01-23T03:24:42.088Z,2.09
2023-01-23T03:25:42.162Z,2.09
2023-01-23T03:26:42.253Z,2.07
2023-01-23T03:27:42.332Z,2.07
2023-01-23T03:28:42.418Z,2.08
2023-01-23T03:29:42.709Z,2.09
2023-01-23T03:30:42.585Z,2.11
2023-01-23T03:31:42.825Z,2.09
2023-01-23T03:32:42.739Z,2.12
2023-01-23T03:33:42.835Z,2.14
2023-01-23T03:34:42.949Z,2.14
2023-01-23T03:35:43.010Z,2.09
2023-01-23T03:36:43.080Z,2.11
2023-01-23T03:37:43.194Z,2.11
2023-01-23T03:38:43.273Z,2.11
2023-01-23T03:39:43.408Z,2.08
2023-01-23T03:40:43.459Z,2.08
2023-01-23T03:41:43.537Z,2.08
2023-01-23T03:42:43.619Z,2.08
2023-01-23T03:43:43.696Z,2.07
2023-01-23T03:44:43.791Z,2.09
2023-01-23T03:45:43.882Z,2.09
2023-01-23T03:46:43.949Z,2.08
2023-01-23T03:47:44.022Z,2.08
2023-01-23T03:48:44.115Z,2.02
2023-01-23T03:49:44.210Z,2.01
2023-01-23T03:50:44.254Z,1.98
2023-01-23T03:51:44.322Z,1.90
2023-01-23T03:52:44.371Z,1.86
2023-01-23T03:53:44.463Z,1.82
2023-01-23T03:54:44.556Z,1.81
2023-01-23T03:55:44.632Z,1.81
2023-01-23T03:56:44.707Z,1.71
2023-01-23T03:57:44.824Z,1.68
2023-01-23T03:58:44.900Z,1.68
2023-01-23T03:59:45.005Z,1.64
2023-01-23T04:00:45.113Z,1.65
2023-01-23T04:01:45.160Z,1.68
2023-01-23T04:02:45.244Z,1.65
2023-01-23T04:03:45.307Z,1.60
2023-01-23T04:04:45.411Z,1.56
2023-01-23T04:05:45.486Z,1.56
2023-01-23T04:06:45.571Z,1.47
2023-01-23T04:07:45.641Z,1.46
2023-01-23T04:08:45.719Z,1.47
2023-01-23T04:09:45.806Z,1.46
2023-01-23T04:10:45.852Z,1.44
2023-01-23T04:11:45.925Z,1.46
2023-01-23T04:12:46.005Z,1.47
2023-01-23T04:13:46.077Z,1.46
2023-01-23T04:14:46.176Z,1.47
2023-01-23T04:15:46.263Z,1.47
2023-01-23T04:16:46.382Z,1.47
2023-01-23T04:17:46.420Z,1.50
2023-01-23T04:18:46.502Z,1.50
2023-01-23T04:19:46.797Z,1.50
2023-01-23T04:20:46.642Z,1.50
2023-01-23T04:21:46.717Z,1.49
2023-01-23T04:22:46.785Z,1.50
2023-01-23T04:23:46.852Z,1.49
2023-01-23T04:24:46.955Z,1.47
2023-01-23T04:25:47.021Z,1.49
2023-01-23T04:26:47.115Z,1.47
2023-01-23T04:27:47.177Z,1.44
2023-01-23T04:28:47.250Z,1.39
2023-01-23T04:29:47.334Z,1.39
2023-01-23T04:30:47.523Z,1.42
2023-01-23T04:31:47.615Z,1.42
2023-01-23T04:32:47.541Z,1.39
2023-01-23T04:33:47.604Z,1.38
2023-01-23T04:34:47.697Z,1.36
2023-01-23T04:35:47.783Z,1.36
2023-01-23T04:36:47.874Z,1.38
2023-01-23T04:37:47.976Z,1.38
2023-01-23T04:38:48.040Z,1.42
2023-01-23T04:39:48.131Z,1.42
2023-01-23T04:40:48.177Z,1.42
2023-01-23T04:41:48.270Z,1.39
2023-01-23T04:42:48.351Z,1.35
2023-01-23T04:43:48.427Z,1.35
2023-01-23T04:44:48.517Z,1.35
2023-01-23T04:45:48.680Z,1.35
2023-01-23T04:46:48.654Z,1.36
2023-01-23T04:47:48.728Z,1.38
2023-01-23T04:48:49.053Z,1.36
2023-01-23T04:49:48.911Z,1.38
2023-01-23T04:50:49.035Z,1.42
2023-01-23T04:51:49.075Z,1.43
2023-01-23T04:52:49.146Z,1.44
2023-01-23T04:53:49.229Z,1.44
2023-01-23T04:54:49.314Z,1.46
2023-01-23T04:55:49.356Z,1.47
2023-01-23T04:56:49.458Z,1.43
2023-01-23T04:57:49.539Z,1.42
2023-01-23T04:58:49.604Z,1.44
2023-01-23T04:59:49.704Z,1.47
2023-01-23T05:00:49.787Z,1.49
2023-01-23T05:01:49.870Z,1.52
2023-01-23T05:02:50.025Z,1.52
2023-01-23T05:03:50.030Z,1.50
2023-01-23T05:04:50.144Z,1.44
2023-01-23T05:05:50.189Z,1.42
2023-01-23T05:06:50.255Z,1.44
2023-01-23T05:07:50.338Z,1.38
2023-01-23T05:08:52.378Z,1.39
2023-01-23T05:09:50.498Z,1.36
2023-01-23T05:10:50.568Z,1.34
2023-01-23T05:11:50.651Z,1.34
2023-01-23T05:12:50.723Z,1.31
2023-01-23T05:13:50.804Z,1.28
2023-01-23T05:14:50.910Z,1.26
2023-01-23T05:15:50.961Z,1.25
2023-01-23T05:16:51.026Z,1.28
2023-01-23T05:17:51.097Z,1.26
2023-01-23T05:18:51.172Z,1.28
2023-01-23T05:19:51.264Z,1.26
2023-01-23T05:20:51.352Z,1.28
2023-01-23T05:21:51.421Z,1.26
2023-01-23T05:22:51.512Z,1.28
2023-01-23T05:23:51.601Z,1.31
2023-01-23T05:24:51.675Z,1.32
2023-01-23T05:25:51.723Z,1.32
2023-01-23T05:26:51.806Z,1.34
2023-01-23T05:27:51.876Z,1.35
2023-01-23T05:28:51.961Z,1.36
2023-01-23T05:29:52.074Z,1.38
2023-01-23T05:30:52.265Z,1.42
2023-01-23T05:31:52.257Z,1.46
2023-01-23T05:32:52.306Z,1.44
2023-01-23T05:33:52.384Z,1.46
2023-01-23T05:34:52.488Z,1.49
2023-01-23T05:35:52.540Z,1.52
2023-01-23T05:36:52.607Z,1.52
2023-01-23T05:37:52.730Z,1.54
2023-01-23T05:38:52.751Z,1.56
2023-01-23T05:39:52.847Z,1.57
2023-01-23T05:40:52.936Z,1.53
2023-01-23T05:41:53.015Z,1.54
2023-01-23T05:42:53.087Z,1.56
2023-01-23T05:43:53.173Z,1.57
2023-01-23T05:44:53.260Z,1.61
2023-01-23T05:45:53.314Z,1.63
2023-01-23T05:46:53.393Z,1.63
2023-01-23T05:47:53.472Z,1.61
2023-01-23T05:48:53.546Z,1.64
2023-01-23T05:49:53.638Z,1.68
2023-01-23T05:50:53.731Z,1.67
2023-01-23T05:51:53.781Z,1.70
2023-01-23T05:52:53.873Z,1.60
2023-01-23T05:53:53.942Z,1.56
2023-01-23T05:54:54.038Z,1.61
2023-01-23T05:55:54.114Z,1.64
2023-01-23T05:56:54.167Z,1.65
2023-01-23T05:57:54.255Z,1.65
2023-01-23T05:58:54.326Z,1.67
2023-01-23T05:59:54.405Z,1.63
2023-01-23T06:00:54.452Z,1.63
2023-01-23T06:01:54.525Z,1.61
2023-01-23T06:02:54.643Z,1.54
2023-01-23T06:03:54.733Z,1.53
2023-01-23T06:04:55.905Z,1.52
2023-01-23T06:05:54.886Z,1.50
2023-01-23T06:06:54.953Z,1.54
2023-01-23T06:07:55.032Z,1.52
2023-01-23T06:08:55.108Z,1.53
2023-01-23T06:09:55.199Z,1.56
2023-01-23T06:10:55.245Z,1.57
2023-01-23T06:11:55.346Z,1.61
2023-01-23T06:12:55.423Z,1.65
2023-01-23T06:13:55.503Z,1.65
2023-01-23T06:14:55.597Z,1.67
2023-01-23T06:15:55.720Z,1.61
2023-01-23T06:16:55.745Z,1.61
2023-01-23T06:17:55.849Z,1.64
2023-01-23T06:18:55.918Z,1.64
2023-01-23T06:19:56.021Z,1.60
2023-01-23T06:20:56.052Z,1.54
2023-01-23T06:21:56.132Z,1.57
2023-01-23T06:22:56.203Z,1.60
2023-01-23T06:23:56.341Z,1.54
2023-01-23T06:24:56.412Z,1.57
2023-01-23T06:25:56.485Z,1.61
2023-01-23T06:26:56.562Z,1.63
2023-01-23T06:27:56.674Z,1.64
2023-01-23T06:28:56.751Z,1.65
2023-01-23T06:29:56.839Z,1.67
2023-01-23T06:30:56.995Z,1.67
2023-01-23T06:31:57.040Z,1.67
2023-01-23T06:32:57.068Z,1.68
2023-01-23T06:33:57.150Z,1.67
2023-01-23T06:34:57.242Z,1.65
2023-01-23T06:35:57.319Z,1.65
2023-01-23T06:36:57.389Z,1.64
2023-01-23T06:37:57.492Z,1.63
2023-01-23T06:38:57.563Z,1.63
2023-01-23T06:39:57.682Z,1.64
2023-01-23T06:40:57.741Z,1.64
2023-01-23T06:41:57.811Z,1.67
2023-01-23T06:42:57.905Z,1.64
2023-01-23T06:43:57.981Z,1.61
2023-01-23T06:44:58.046Z,1.64
2023-01-23T06:45:58.103Z,1.57
2023-01-23T06:46:58.182Z,1.60
2023-01-23T06:47:58.254Z,1.57
2023-01-23T06:48:58.332Z,1.60
2023-01-23T06:49:58.437Z,1.60
2023-01-23T06:50:58.540Z,1.63
2023-01-23T06:51:58.573Z,1.64
2023-01-23T06:52:58.654Z,1.63
2023-01-23T06:53:58.744Z,1.64
2023-01-23T06:54:58.850Z,1.64
2023-01-23T06:55:58.929Z,1.64
2023-01-23T06:56:58.981Z,1.63
2023-01-23T06:57:59.046Z,1.57
2023-01-23T06:58:59.135Z,1.61
2023-01-23T06:59:59.238Z,1.54
2023-01-23T07:00:59.292Z,1.57
2023-01-23T07:01:59.450Z,1.50
2023-01-23T07:02:59.511Z,1.53
2023-01-23T07:03:59.533Z,1.56
2023-01-23T07:04:59.611Z,1.61
2023-01-23T07:05:59.663Z,1.61
2023-01-23T07:06:59.745Z,1.60
2023-01-23T07:07:59.819Z,1.56
2023-01-23T07:08:59.890Z,1.56
2023-01-23T07:09:59.971Z,1.50
2023-01-23T07:11:00.012Z,1.49
2023-01-23T07:12:00.117Z,1.47
2023-01-23T07:13:00.196Z,1.44
2023-01-23T07:14:00.271Z,1.44
2023-01-23T07:15:00.384Z,1.47
2023-01-23T07:16:00.496Z,1.44
2023-01-23T07:17:00.519Z,1.49
2023-01-23T07:18:00.584Z,1.54
2023-01-23T07:19:00.666Z,1.57
2023-01-23T07:20:00.770Z,1.61
2023-01-23T07:21:00.825Z,1.61
2023-01-23T07:22:00.891Z,1.67
2023-01-23T07:23:01.306Z,1.65
2023-01-23T07:24:01.064Z,1.68
2023-01-23T07:25:01.167Z,1.68
2023-01-23T07:26:01.237Z,1.70
2023-01-23T07:27:01.327Z,1.71
2023-01-23T07:28:01.393Z,1.71
2023-01-23T07:29:01.485Z,1.71
2023-01-23T07:30:01.577Z,1.72
2023-01-23T07:31:01.753Z,1.74
2023-01-23T07:32:01.723Z,1.74
2023-01-23T07:33:01.794Z,1.67
2023-01-23T07:34:01.896Z,1.65
2023-01-23T07:35:01.978Z,1.65
2023-01-23T07:36:02.057Z,1.70
2023-01-23T07:37:02.128Z,1.70
2023-01-23T07:38:02.215Z,1.71
2023-01-23T07:39:02.324Z,1.72
2023-01-23T07:40:02.400Z,1.75
2023-01-23T07:41:02.443Z,1.79
2023-01-23T07:42:02.519Z,1.81
2023-01-23T07:43:02.595Z,1.83
2023-01-23T07:44:02.667Z,1.82
2023-01-23T07:45:02.756Z,1.82
2023-01-23T07:46:02.840Z,1.81
2023-01-23T07:47:02.919Z,1.82
2023-01-23T07:48:02.990Z,1.83
2023-01-23T07:49:03.065Z,1.85
2023-01-23T07:50:03.178Z,1.83
2023-01-23T07:51:03.268Z,1.81
2023-01-23T07:52:03.295Z,1.79
2023-01-23T07:53:03.392Z,1.79
2023-01-23T07:54:03.465Z,1.82
2023-01-23T07:55:03.547Z,1.81
2023-01-23T07:56:03.619Z,1.82
2023-01-23T07:57:03.705Z,1.85
2023-01-23T07:58:03.791Z,1.90
2023-01-23T07:59:03.841Z,2.00
2023-01-23T08:00:03.958Z,2.08
2023-01-23T08:01:04.067Z,2.04
2023-01-23T08:02:04.101Z,2.04
2023-01-23T08:03:04.159Z,2.04
2023-01-23T08:04:04.314Z,2.05
2023-01-23T08:05:04.364Z,2.08
2023-01-23T08:06:04.419Z,2.08
2023-01-23T08:07:04.508Z,2.09
2023-01-23T08:08:13.081Z,2.14
2023-01-23T08:09:04.653Z,2.14
2023-01-23T08:10:04.804Z,2.18
2023-01-23T08:11:04.806Z,2.19
2023-01-23T08:12:04.881Z,2.22
2023-01-23T08:13:04.961Z,2.26
2023-01-23T08:14:05.047Z,2.22
2023-01-23T08:15:05.152Z,2.19
2023-01-23T08:16:05.266Z,2.20
2023-01-23T08:17:05.312Z,2.20
2023-01-23T08:18:05.391Z,2.18
2023-01-23T08:19:05.474Z,2.14
2023-01-23T08:20:05.591Z,2.18
2023-01-23T08:21:05.625Z,2.15
2023-01-23T08:22:05.695Z,2.11
2023-01-23T08:23:05.798Z,2.08
2023-01-23T08:24:05.864Z,2.08
2023-01-23T08:25:05.971Z,2.09
2023-01-23T08:26:06.038Z,2.11
2023-01-23T08:27:06.113Z,2.11
2023-01-23T08:28:06.187Z,2.12
2023-01-23T08:29:06.267Z,2.12
2023-01-23T08:30:06.499Z,2.18
2023-01-23T08:31:06.926Z,2.15
2023-01-23T08:32:06.547Z,2.15
2023-01-23T08:33:06.581Z,2.15
2023-01-23T08:34:06.656Z,2.09
2023-01-23T08:35:06.746Z,2.07
2023-01-23T08:36:06.820Z,2.09
2023-01-23T08:37:06.900Z,2.08
2023-01-23T08:38:06.981Z,2.09
2023-01-23T08:39:07.059Z,2.07
2023-01-23T08:40:07.149Z,2.12
2023-01-23T08:41:07.198Z,2.14
2023-01-23T08:42:07.289Z,2.15
2023-01-23T08:43:07.367Z,2.18
2023-01-23T08:44:07.491Z,2.12
2023-01-23T08:45:07.539Z,2.15
2023-01-23T08:46:07.779Z,2.11
2023-01-23T08:47:07.708Z,2.11
2023-01-23T08:48:07.781Z,2.12
2023-01-23T08:49:09.299Z,2.12
2023-01-23T08:50:07.965Z,2.14
2023-01-23T08:51:08.050Z,2.11
2023-01-23T08:52:08.088Z,2.12
2023-01-23T08:53:08.169Z,2.15
2023-01-23T08:54:08.258Z,2.15
2023-01-23T08:55:08.352Z,2.15
2023-01-23T08:56:08.420Z,2.19
2023-01-23T08:57:08.511Z,2.19
2023-01-23T08:58:08.604Z,2.20
2023-01-23T08:59:08.684Z,2.22
2023-01-23T09:00:08.777Z,2.22
2023-01-23T09:01:08.888Z,2.22
2023-01-23T09:02:08.946Z,2.23
2023-01-23T09:03:11.351Z,2.23
2023-01-23T09:04:09.044Z,2.25
2023-01-23T09:05:09.141Z,2.25
2023-01-23T09:06:09.177Z,2.27
2023-01-23T09:07:09.257Z,2.26
2023-01-23T09:08:09.330Z,2.25
2023-01-23T09:09:09.396Z,2.29
2023-01-23T09:10:09.504Z,2.30
2023-01-23T09:11:09.569Z,2.32
2023-01-23T09:12:09.637Z,2.32
2023-01-23T09:13:09.725Z,2.32
2023-01-23T09:14:09.814Z,2.33
2023-01-23T09:15:09.896Z,2.33
2023-01-23T09:16:09.981Z,2.33
2023-01-23T09:17:10.020Z,2.36
2023-01-23T09:18:10.098Z,2.37
2023-01-23T09:19:10.179Z,2.37
2023-01-23T09:20:10.276Z,2.33
2023-01-23T09:21:10.330Z,2.29
2023-01-23T09:22:10.428Z,2.30
2023-01-23T09:23:10.498Z,2.32
2023-01-23T09:24:10.574Z,2.37
2023-01-23T09:25:10.870Z,2.40
2023-01-23T09:26:10.713Z,2.44
2023-01-23T09:27:10.789Z,2.44
2023-01-23T09:28:10.877Z,2.43
2023-01-23T09:29:10.946Z,2.41
2023-01-23T09:30:11.047Z,2.43
2023-01-23T09:31:11.124Z,2.45
2023-01-23T09:32:11.207Z,2.50
2023-01-23T09:33:11.303Z,2.56
2023-01-23T09:34:11.386Z,2.55
2023-01-23T09:35:11.493Z,2.58
2023-01-23T09:36:11.530Z,2.62
2023-01-23T09:37:11.617Z,2.65
2023-01-23T09:38:11.702Z,2.66
2023-01-23T09:39:11.800Z,2.69
2023-01-23T09:40:12.179Z,2.74
2023-01-23T09:41:11.963Z,2.74
2023-01-23T09:42:12.041Z,2.76
2023-01-23T09:43:12.142Z,2.79
2023-01-23T09:44:12.224Z,2.80
2023-01-23T09:45:12.352Z,2.81
2023-01-23T09:46:12.443Z,2.83
2023-01-23T09:47:12.469Z,2.80
2023-01-23T09:48:12.529Z,2.81
2023-01-23T09:49:12.604Z,2.81
2023-01-23T09:50:12.707Z,2.81
2023-01-23T09:51:12.849Z,2.83
2023-01-23T09:52:12.813Z,2.83
2023-01-23T09:53:12.882Z,2.81
2023-01-23T09:54:12.965Z,2.84
2023-01-23T09:55:13.063Z,2.86
2023-01-23T09:56:13.116Z,2.87
2023-01-23T09:57:13.216Z,2.90
2023-01-23T09:58:13.285Z,2.90
2023-01-23T09:59:13.380Z,2.94
2023-01-23T10:00:13.475Z,2.95
2023-01-23T10:01:13.623Z,2.92
2023-01-23T10:02:13.640Z,2.94
2023-01-23T10:03:13.707Z,2.95
2023-01-23T10:04:13.809Z,2.95
2023-01-23T10:05:13.882Z,2.95
2023-01-23T10:06:13.928Z,2.95
2023-01-23T10:07:14.022Z,2.97
2023-01-23T10:08:14.102Z,2.95
2023-01-23T10:09:14.185Z,2.95
2023-01-23T10:10:14.315Z,2.98
2023-01-23T10:11:14.354Z,2.98
2023-01-23T10:12:14.436Z,2.98
2023-01-23T10:13:16.492Z,3.04
2023-01-23T10:14:17.156Z,3.04
2023-01-23T10:15:14.691Z,3.05
2023-01-23T10:16:14.738Z,3.08
2023-01-23T10:17:14.858Z,3.12
2023-01-23T10:18:14.867Z,3.13
2023-01-23T10:19:14.955Z,3.16
2023-01-23T10:20:15.052Z,3.19
2023-01-23T10:21:15.104Z,3.22
2023-01-23T10:22:22.787Z,3.23
2023-01-23T10:23:15.290Z,3.26
2023-01-23T10:24:15.340Z,3.26
2023-01-23T10:25:15.440Z,3.25
2023-01-23T10:26:15.484Z,3.26
2023-01-23T10:27:15.557Z,3.28
2023-01-23T10:28:15.637Z,3.34
2023-01-23T10:29:15.721Z,3.35
2023-01-23T10:30:15.793Z,3.35
2023-01-23T10:31:15.991Z,3.37
2023-01-23T10:32:15.929Z,3.41
2023-01-23T10:33:16.005Z,3.41
2023-01-23T10:34:16.068Z,3.42
2023-01-23T10:35:16.208Z,3.44
2023-01-23T10:36:23.451Z,3.46
2023-01-23T10:37:16.300Z,3.46
2023-01-23T10:38:16.342Z,3.46
2023-01-23T10:39:16.421Z,3.45
2023-01-23T10:40:16.518Z,3.49
2023-01-23T10:41:16.590Z,3.50
2023-01-23T10:42:16.638Z,3.46
2023-01-23T10:43:16.720Z,3.41
2023-01-23T10:44:16.799Z,3.31
2023-01-23T10:45:16.904Z,3.35
2023-01-23T10:46:17.128Z,3.42
2023-01-23T10:47:17.017Z,3.44
2023-01-23T10:48:17.094Z,3.45
2023-01-23T10:49:17.170Z,3.45
2023-01-23T10:50:17.248Z,3.44
2023-01-23T10:51:17.403Z,3.46
2023-01-23T10:52:17.399Z,3.52
2023-01-23T10:53:17.521Z,3.57
2023-01-23T10:54:30.668Z,3.64
2023-01-23T10:55:17.741Z,3.68
2023-01-23T10:56:17.747Z,3.70
2023-01-23T10:57:17.827Z,3.67
2023-01-23T10:58:17.906Z,3.62
2023-01-23T10:59:17.976Z,3.64
2023-01-23T11:00:18.076Z,3.64
2023-01-23T11:01:18.656Z,3.68
2023-01-23T11:02:18.368Z,3.71
2023-01-23T11:03:18.351Z,3.67
2023-01-23T11:04:18.362Z,3.63
2023-01-23T11:05:18.696Z,3.70
2023-01-23T11:06:18.507Z,3.75
2023-01-23T11:07:18.587Z,3.70
2023-01-23T11:08:18.670Z,3.62
2023-01-23T11:09:18.760Z,3.53
2023-01-23T11:10:18.877Z,3.46
2023-01-23T11:11:18.897Z,3.46
2023-01-23T11:12:18.967Z,3.54
2023-01-23T11:13:19.046Z,3.60
2023-01-23T11:14:19.100Z,3.60
2023-01-23T11:15:19.591Z,3.64
2023-01-23T11:16:19.362Z,3.62
2023-01-23T11:17:19.344Z,3.60
2023-01-23T11:18:19.412Z,3.60
2023-01-23T11:19:19.490Z,3.68
2023-01-23T11:20:19.586Z,3.70
2023-01-23T11:21:19.656Z,3.71
2023-01-23T11:22:19.740Z,3.68
2023-01-23T11:23:19.830Z,3.63
2023-01-23T11:24:24.841Z,3.67
2023-01-23T11:25:20.358Z,3.68
2023-01-23T11:26:20.071Z,3.68
2023-01-23T11:27:20.200Z,3.68
2023-01-23T11:28:20.208Z,3.67
2023-01-23T11:29:20.271Z,3.64
2023-01-23T11:30:20.365Z,3.68
2023-01-23T11:31:20.593Z,3.75
2023-01-23T11:32:20.628Z,3.82
2023-01-23T11:33:20.598Z,3.92
2023-01-23T11:34:20.679Z,3.93
2023-01-23T11:35:21.047Z,3.90
2023-01-23T11:36:20.818Z,3.96
2023-01-23T11:37:20.903Z,4.00
2023-01-23T11:38:30.213Z,4.07
2023-01-23T11:39:21.095Z,4.10
2023-01-23T11:40:21.150Z,4.13
2023-01-23T11:41:21.252Z,4.06
2023-01-23T11:42:21.312Z,4.13
2023-01-23T11:43:21.384Z,4.20
2023-01-23T11:44:23.022Z,4.25
2023-01-23T11:45:21.901Z,4.28
2023-01-23T11:46:21.689Z,4.25
2023-01-23T11:47:21.718Z,4.18
2023-01-23T11:48:21.784Z,4.25
2023-01-23T11:49:21.872Z,4.21
2023-01-23T11:50:21.971Z,4.18
2023-01-23T11:51:22.060Z,4.25
2023-01-23T11:52:22.118Z,4.31
2023-01-23T11:53:28.017Z,4.34
2023-01-23T11:54:22.306Z,4.34
2023-01-23T11:55:22.919Z,4.32
2023-01-23T11:56:22.440Z,4.34
2023-01-23T11:57:22.513Z,4.35
2023-01-23T11:58:22.575Z,4.39
2023-01-23T11:59:22.670Z,4.46
2023-01-23T12:00:23.054Z,4.46
2023-01-23T12:01:22.825Z,4.46
2023-01-23T12:02:22.974Z,4.44
2023-01-23T12:03:22.987Z,4.47
2023-01-23T12:04:23.082Z,4.51
2023-01-23T12:05:23.621Z,4.54
2023-01-23T12:06:23.212Z,4.56
2023-01-23T12:07:23.314Z,4.53
2023-01-23T12:08:23.400Z,4.51
2023-01-23T12:09:23.477Z,4.49
2023-01-23T12:10:23.792Z,4.47
2023-01-23T12:11:23.637Z,4.49
2023-01-23T12:12:23.718Z,4.49
2023-01-23T12:13:23.788Z,4.47
2023-01-23T12:14:23.852Z,4.36
2023-01-23T12:15:23.949Z,4.31
2023-01-23T12:16:24.069Z,4.32
2023-01-23T12:17:24.099Z,4.34
2023-01-23T12:18:24.182Z,4.34
2023-01-23T12:19:24.252Z,4.34
2023-01-23T12:20:24.356Z,4.36
2023-01-23T12:21:24.421Z,4.36
2023-01-23T12:22:24.483Z,4.36
2023-01-23T12:23:24.621Z,4.42
2023-01-23T12:24:24.659Z,4.42
2023-01-23T12:25:24.786Z,4.42
2023-01-23T12:26:24.804Z,4.42
2023-01-23T12:27:24.907Z,4.43
2023-01-23T12:28:24.988Z,4.44
2023-01-23T12:29:25.058Z,4.36
2023-01-23T12:30:25.151Z,4.29
2023-01-23T12:31:25.291Z,4.31
2023-01-23T12:32:25.355Z,4.31
2023-01-23T12:33:25.391Z,4.36
2023-01-23T12:34:25.458Z,4.42
2023-01-23T12:35:25.587Z,4.39
2023-01-23T12:36:27.355Z,4.38
2023-01-23T12:37:30.678Z,4.43
2023-01-23T12:38:25.798Z,4.43
2023-01-23T12:39:25.886Z,4.44
2023-01-23T12:40:25.995Z,4.46
2023-01-23T12:41:26.048Z,4.49
2023-01-23T12:42:26.128Z,4.39
2023-01-23T12:43:26.200Z,4.38
2023-01-23T12:44:26.281Z,4.42
2023-01-23T12:45:26.382Z,4.44
2023-01-23T12:46:26.423Z,4.43
2023-01-23T12:47:26.494Z,4.44
2023-01-23T12:48:26.559Z,4.43
2023-01-23T12:49:26.650Z,4.44
2023-01-23T12:50:26.767Z,4.44
2023-01-23T12:51:26.904Z,4.44
2023-01-23T12:52:26.910Z,4.44
2023-01-23T12:53:26.987Z,4.44
2023-01-23T12:54:27.067Z,4.39
2023-01-23T12:55:27.554Z,4.39
2023-01-23T12:56:27.226Z,4.39
2023-01-23T12:57:34.711Z,4.39
2023-01-23T12:58:27.375Z,4.39
2023-01-23T12:59:27.449Z,4.44
2023-01-23T13:00:27.545Z,4.47
2023-01-23T13:01:27.611Z,4.44
2023-01-23T13:02:27.732Z,4.38
2023-01-23T13:03:37.308Z,4.38
2023-01-23T13:04:27.868Z,4.32
2023-01-23T13:05:27.959Z,4.32
2023-01-23T13:06:28.031Z,4.31
2023-01-23T13:07:28.101Z,4.32
2023-01-23T13:08:29.101Z,4.34
2023-01-23T13:09:28.292Z,4.35
2023-01-23T13:10:28.388Z,4.32
2023-01-23T13:11:28.457Z,4.29
2023-01-23T13:12:28.538Z,4.28
2023-01-23T13:13:28.606Z,4.31
2023-01-23T13:14:33.048Z,4.32
2023-01-23T13:15:39.555Z,4.35
2023-01-23T13:16:28.824Z,4.26
2023-01-23T13:17:28.882Z,4.11
2023-01-23T13:18:28.969Z,4.08
2023-01-23T13:19:29.130Z,4.08